createdAt,value
2023-04-21T00:00:10.211Z,99.90
2023-04-21T00:02:40.079Z,99.90
2023-04-21T00:05:10.668Z,99.90
2023-04-21T00:07:38.404Z,99.90
2023-04-21T00:10:07.765Z,99.90
2023-04-21T00:12:35.046Z,99.90
2023-04-21T00:15:02.246Z,99.90
2023-04-21T00:17:29.690Z,99.90
2023-04-21T00:19:57.269Z,99.90
2023-04-21T00:22:24.570Z,99.90
2023-04-21T00:24:51.835Z,99.90
2023-04-21T00:27:18.998Z,99.90
2023-04-21T00:29:46.157Z,99.90
2023-04-21T00:32:13.497Z,99.90
2023-04-21T00:34:40.734Z,99.90
2023-04-21T00:37:07.956Z,99.90
2023-04-21T00:39:35.196Z,99.90
2023-04-21T00:42:02.567Z,99.90
2023-04-21T00:44:29.687Z,99.90
2023-04-21T00:46:57.935Z,99.90
2023-04-21T00:49:25.918Z,99.90
2023-04-21T00:51:53.632Z,99.90
2023-04-21T00:54:26.144Z,99.90
2023-04-21T00:56:55.572Z,99.90
2023-04-21T00:59:22.668Z,99.90
2023-04-21T01:01:50.282Z,99.90
2023-04-21T01:04:17.590Z,99.90
2023-04-21T01:06:45.088Z,99.90
2023-04-21T01:09:13.152Z,99.90
2023-04-21T01:11:40.508Z,99.90
2023-04-21T01:14:08.295Z,99.90
2023-04-21T01:16:35.569Z,99.90
2023-04-21T01:19:04.589Z,99.90
2023-04-21T01:21:39.008Z,99.90
2023-04-21T01:24:06.461Z,99.90
2023-04-21T01:26:33.549Z,99.90
2023-04-21T01:29:02.118Z,99.90
2023-04-21T01:31:29.356Z,99.90
2023-04-21T01:33:56.745Z,99.90
2023-04-21T01:36:24.068Z,99.90
2023-04-21T01:38:52.738Z,99.90
2023-04-21T01:41:19.888Z,99.90
2023-04-21T01:43:47.261Z,99.90
2023-04-21T01:46:14.394Z,99.90
2023-04-21T01:48:41.634Z,99.90
2023-04-21T01:51:08.812Z,99.90
2023-04-21T01:53:36.004Z,99.90
2023-04-21T01:56:03.101Z,99.90
2023-04-21T01:58:31.494Z,99.90
2023-04-21T02:00:58.698Z,99.90
2023-04-21T02:03:25.948Z,99.90
2023-04-21T02:05:53.152Z,99.90
2023-04-21T02:08:20.434Z,99.90
2023-04-21T02:10:47.622Z,99.90
2023-04-21T02:13:14.911Z,99.90
2023-04-21T02:15:42.241Z,99.90
2023-04-21T02:18:09.577Z,99.90
2023-04-21T02:20:37.836Z,99.90
2023-04-21T02:23:05.044Z,99.90
2023-04-21T02:25:32.314Z,99.90
2023-04-21T02:27:59.855Z,99.90
2023-04-21T02:30:28.149Z,99.90
2023-04-21T02:32:55.433Z,99.90
2023-04-21T02:35:22.835Z,99.90
2023-04-21T02:37:51.058Z,99.90
2023-04-21T02:40:18.270Z,99.90
2023-04-21T02:42:45.830Z,99.90
2023-04-21T02:45:13.165Z,99.90
2023-04-21T02:47:40.528Z,99.90
2023-04-21T02:50:08.118Z,99.90
2023-04-21T02:52:38.095Z,99.90
2023-04-21T02:55:05.748Z,99.90
2023-04-21T02:57:33.050Z,99.90
2023-04-21T03:00:00.456Z,99.90
2023-04-21T03:02:27.946Z,99.90
2023-04-21T03:04:56.651Z,99.90
2023-04-21T03:07:23.948Z,99.90
2023-04-21T03:09:51.218Z,99.90
2023-04-21T03:12:18.588Z,99.90
2023-04-21T03:14:45.882Z,99.90
2023-04-21T03:17:13.159Z,99.90
2023-04-21T03:19:40.570Z,99.90
2023-04-21T03:22:07.767Z,99.90
2023-04-21T03:24:35.329Z,99.90
2023-04-21T03:27:02.808Z,99.90
2023-04-21T03:29:30.122Z,99.90
2023-04-21T03:31:57.524Z,99.90
2023-04-21T03:34:25.819Z,99.90
2023-04-21T03:36:53.058Z,99.90
2023-04-21T03:39:22.129Z,99.90
2023-04-21T03:41:51.498Z,99.90
2023-04-21T03:44:18.627Z,99.90
2023-04-21T03:46:45.806Z,99.90
2023-04-21T03:49:13.088Z,99.90
2023-04-21T03:51:40.348Z,99.90
2023-04-21T03:54:08.507Z,99.90
2023-04-21T03:56:35.927Z,99.90
2023-04-21T03:59:03.226Z,99.90
2023-04-21T04:01:30.478Z,99.90
2023-04-21T04:03:58.078Z,99.90
2023-04-21T04:06:25.448Z,99.90
2023-04-21T04:08:52.777Z,99.90
2023-04-21T04:11:20.069Z,99.90
2023-04-21T04:13:47.229Z,99.90
2023-04-21T04:16:14.405Z,99.90
2023-04-21T04:18:41.654Z,99.90
2023-04-21T04:21:08.951Z,99.90
2023-04-21T04:23:36.631Z,99.90
2023-04-21T04:26:05.786Z,99.90
2023-04-21T04:28:33.776Z,99.90
2023-04-21T04:31:01.405Z,99.90
2023-04-21T04:33:29.190Z,99.90
2023-04-21T04:35:56.376Z,99.90
2023-04-21T04:38:23.458Z,99.90
2023-04-21T04:40:53.749Z,99.90
2023-04-21T04:43:21.350Z,99.90
2023-04-21T04:45:48.723Z,99.90
2023-04-21T04:48:16.549Z,99.90
2023-04-21T04:50:44.078Z,99.90
2023-04-21T04:53:11.362Z,99.90
2023-04-21T04:55:38.662Z,99.90
2023-04-21T04:58:05.830Z,99.90
2023-04-21T05:00:33.278Z,99.90
2023-04-21T05:03:00.751Z,99.90
2023-04-21T05:05:28.058Z,99.90
2023-04-21T05:07:55.199Z,99.90
2023-04-21T05:10:22.467Z,99.90
2023-04-21T05:12:49.878Z,99.90
2023-04-21T05:15:18.508Z,99.90
2023-04-21T05:17:45.772Z,99.90
2023-04-21T05:20:13.092Z,99.90
2023-04-21T05:22:40.875Z,99.90
2023-04-21T05:25:10.430Z,99.90
2023-04-21T05:27:37.520Z,99.90
2023-04-21T05:30:05.098Z,99.90
2023-04-21T05:32:32.362Z,99.90
2023-04-21T05:35:00.549Z,99.90
2023-04-21T05:37:27.770Z,99.90
2023-04-21T05:39:55.064Z,99.90
2023-04-21T05:42:22.152Z,99.90
2023-04-21T05:44:49.413Z,99.90
2023-04-21T05:47:16.629Z,99.90
2023-04-21T05:49:50.485Z,99.90
2023-04-21T05:52:18.083Z,99.90
2023-04-21T05:54:45.309Z,99.90
2023-04-21T05:57:12.499Z,99.90
2023-04-21T05:59:39.689Z,99.90
2023-04-21T06:02:07.565Z,99.90
2023-04-21T06:04:35.022Z,99.90
2023-04-21T06:07:08.302Z,99.90
2023-04-21T06:09:36.341Z,99.90
2023-04-21T06:12:03.955Z,99.90
2023-04-21T06:14:31.318Z,99.90
2023-04-21T06:16:58.830Z,99.90
2023-04-21T06:19:26.002Z,99.90
2023-04-21T06:21:53.207Z,99.90
2023-04-21T06:24:25.589Z,99.90
2023-04-21T06:26:53.573Z,99.90
2023-04-21T06:29:21.127Z,99.90
2023-04-21T06:31:48.560Z,99.90
2023-04-21T06:34:16.365Z,99.90
2023-04-21T06:36:43.875Z,99.90
2023-04-21T06:39:11.168Z,99.90
2023-04-21T06:41:38.530Z,99.90
2023-04-21T06:44:06.068Z,99.90
2023-04-21T06:46:33.452Z,99.90
2023-04-21T06:49:01.119Z,99.90
2023-04-21T06:51:28.566Z,99.90
2023-04-21T06:53:55.866Z,99.90
2023-04-21T06:56:23.232Z,99.90
2023-04-21T06:58:50.687Z,99.90
2023-04-21T07:01:18.176Z,99.90
2023-04-21T07:03:45.860Z,99.90
2023-04-21T07:06:13.744Z,99.90
2023-04-21T07:08:41.585Z,99.90
2023-04-21T07:11:08.972Z,99.90
2023-04-21T07:13:36.352Z,99.90
2023-04-21T07:16:03.851Z,99.90
2023-04-21T07:18:31.190Z,99.90
2023-04-21T07:20:58.732Z,99.90
2023-04-21T07:23:25.961Z,99.90
2023-04-21T07:25:53.412Z,99.90
2023-04-21T07:28:20.951Z,99.90
2023-04-21T07:30:48.500Z,99.90
2023-04-21T07:33:16.344Z,99.90
2023-04-21T07:35:43.944Z,99.90
2023-04-21T07:38:11.237Z,99.90
2023-04-21T07:40:38.674Z,99.90
2023-04-21T07:43:06.073Z,99.90
2023-04-21T07:45:33.468Z,99.90
2023-04-21T07:48:00.921Z,99.90
2023-04-21T07:50:28.418Z,99.90
2023-04-21T07:52:55.756Z,99.90
2023-04-21T07:55:23.134Z,99.90
2023-04-21T07:57:50.761Z,99.90
2023-04-21T08:00:18.444Z,99.90
2023-04-21T08:02:46.119Z,99.90
2023-04-21T08:05:13.948Z,99.90
2023-04-21T08:07:41.257Z,99.70
2023-04-21T08:10:09.339Z,99.90
2023-04-21T08:12:36.769Z,98.70
2023-04-21T08:15:08.315Z,98.40
2023-04-21T08:17:36.152Z,97.50
2023-04-21T08:20:03.976Z,97.40
2023-04-21T08:22:31.529Z,96.80
2023-04-21T08:24:58.875Z,95.40
2023-04-21T08:27:26.423Z,95.00
2023-04-21T08:29:53.715Z,94.40
2023-04-21T08:32:24.782Z,94.30
2023-04-21T08:34:54.720Z,94.80
2023-04-21T08:37:23.130Z,94.60
2023-04-21T08:39:51.074Z,93.90
2023-04-21T08:42:19.184Z,94.20
2023-04-21T08:44:47.537Z,93.30
2023-04-21T08:47:15.865Z,93.50
2023-04-21T08:49:45.534Z,93.70
2023-04-21T08:52:14.723Z,93.30
2023-04-21T08:54:42.704Z,93.10
2023-04-21T08:57:15.222Z,92.70
2023-04-21T08:59:43.166Z,92.60
2023-04-21T09:02:14.082Z,92.80
2023-04-21T09:04:43.647Z,91.40
2023-04-21T09:07:11.620Z,91.30
2023-04-21T09:09:42.379Z,90.00
2023-04-21T09:12:09.724Z,89.70
2023-04-21T09:14:37.278Z,89.30
2023-04-21T09:17:05.350Z,88.90
2023-04-21T09:19:34.886Z,88.50
2023-04-21T09:22:02.837Z,90.00
2023-04-21T09:24:31.069Z,88.40
2023-04-21T09:26:58.580Z,88.90
2023-04-21T09:29:26.732Z,89.20
2023-04-21T09:32:03.022Z,88.60
2023-04-21T09:34:31.094Z,87.80
2023-04-21T09:37:01.567Z,87.70
2023-04-21T09:39:43.097Z,87.90
2023-04-21T09:42:13.915Z,87.10
2023-04-21T09:44:53.291Z,87.80
2023-04-21T09:47:31.447Z,86.60
2023-04-21T09:49:59.129Z,86.60
2023-04-21T09:52:29.215Z,86.00
2023-04-21T09:55:04.423Z,83.00
2023-04-21T09:57:33.616Z,85.20
2023-04-21T10:00:05.488Z,83.60
2023-04-21T10:02:36.118Z,84.20
2023-04-21T10:05:05.623Z,83.60
2023-04-21T10:07:33.201Z,82.60
2023-04-21T10:10:02.505Z,84.10
2023-04-21T10:12:30.175Z,80.10
2023-04-21T10:14:57.829Z,78.90
2023-04-21T10:17:27.048Z,79.50
2023-04-21T10:19:57.619Z,79.90
2023-04-21T10:22:27.960Z,78.40
2023-04-21T10:24:57.249Z,80.20
2023-04-21T10:27:27.870Z,78.10
2023-04-21T10:29:57.013Z,79.60
2023-04-21T10:32:28.130Z,82.00
2023-04-21T10:34:57.357Z,79.40
2023-04-21T10:37:24.620Z,78.80
2023-04-21T10:39:54.986Z,76.30
2023-04-21T10:42:25.619Z,76.20
2023-04-21T10:44:56.882Z,73.60
2023-04-21T10:47:28.117Z,74.90
2023-04-21T10:49:58.459Z,74.70
2023-04-21T10:52:28.923Z,73.60
2023-04-21T10:55:12.800Z,73.50
2023-04-21T10:57:44.189Z,74.00
2023-04-21T11:00:15.765Z,74.80
2023-04-21T11:02:44.963Z,71.90
2023-04-21T11:05:12.864Z,70.90
2023-04-21T11:07:40.627Z,71.60
2023-04-21T11:10:09.317Z,69.70
2023-04-21T11:12:39.723Z,71.20
2023-04-21T11:15:09.256Z,72.20
2023-04-21T11:17:39.787Z,72.50
2023-04-21T11:20:08.714Z,71.60
2023-04-21T11:22:38.678Z,71.50
2023-04-21T11:25:06.815Z,71.10
2023-04-21T11:27:34.192Z,71.10
2023-04-21T11:30:04.339Z,70.70
2023-04-21T11:32:31.677Z,68.30
2023-04-21T11:34:59.371Z,70.50
2023-04-21T11:37:27.936Z,70.50
2023-04-21T11:39:57.708Z,71.00
2023-04-21T11:42:25.213Z,71.70
2023-04-21T11:44:56.748Z,72.70
2023-04-21T11:47:27.437Z,73.20
2023-04-21T11:49:57.237Z,69.30
2023-04-21T11:52:28.140Z,68.20
2023-04-21T11:54:59.178Z,69.40
2023-04-21T11:57:28.237Z,72.70
2023-04-21T11:59:58.608Z,69.10
2023-04-21T12:02:28.890Z,70.60
2023-04-21T12:04:59.365Z,71.30
2023-04-21T12:07:27.407Z,70.10
2023-04-21T12:09:54.892Z,69.20
2023-04-21T12:12:24.360Z,66.90
2023-04-21T12:14:53.202Z,67.60
2023-04-21T12:17:20.957Z,64.60
2023-04-21T12:19:48.526Z,64.80
2023-04-21T12:22:18.798Z,66.60
2023-04-21T12:24:46.628Z,67.20
2023-04-21T12:27:14.556Z,65.00
2023-04-21T12:29:42.744Z,63.30
2023-04-21T12:32:10.689Z,61.00
2023-04-21T12:34:38.283Z,61.40
2023-04-21T12:37:06.322Z,64.90
2023-04-21T12:39:34.816Z,65.40
2023-04-21T12:42:02.628Z,65.80
2023-04-21T12:44:30.047Z,63.60
2023-04-21T12:46:58.201Z,66.20
2023-04-21T12:49:26.167Z,65.00
2023-04-21T12:51:53.539Z,63.70
2023-04-21T12:54:20.907Z,61.90
2023-04-21T12:56:48.202Z,66.10
2023-04-21T12:59:15.845Z,64.50
2023-04-21T13:01:44.210Z,65.70
2023-04-21T13:04:12.134Z,65.50
2023-04-21T13:06:40.347Z,65.30
2023-04-21T13:09:07.818Z,63.40
2023-04-21T13:11:35.138Z,63.60
2023-04-21T13:14:04.261Z,59.50
2023-04-21T13:16:32.145Z,59.00
2023-04-21T13:18:59.634Z,59.70
2023-04-21T13:21:26.945Z,58.90
2023-04-21T13:23:54.587Z,58.10
2023-04-21T13:26:22.017Z,60.50
2023-04-21T13:28:49.596Z,59.60
2023-04-21T13:31:17.155Z,57.30
2023-04-21T13:33:44.680Z,57.20
2023-04-21T13:36:13.197Z,56.70
2023-04-21T13:38:41.162Z,57.80
2023-04-21T13:41:08.978Z,57.40
2023-04-21T13:43:36.423Z,57.50
2023-04-21T13:46:03.965Z,60.20
2023-04-21T13:48:31.630Z,56.40
2023-04-21T13:50:58.958Z,55.30
2023-04-21T13:53:27.153Z,57.90
2023-04-21T13:55:57.258Z,57.70
2023-04-21T13:58:24.647Z,57.40
2023-04-21T14:00:52.060Z,56.30
2023-04-21T14:03:19.684Z,56.40
2023-04-21T14:05:47.134Z,56.40
2023-04-21T14:08:14.635Z,59.40
2023-04-21T14:10:41.898Z,58.40
2023-04-21T14:13:17.402Z,57.70
2023-04-21T14:15:55.564Z,57.50
2023-04-21T14:18:23.633Z,58.00
2023-04-21T14:20:51.034Z,57.60
2023-04-21T14:23:18.418Z,57.70
2023-04-21T14:25:46.007Z,57.20
2023-04-21T14:28:13.248Z,57.00
2023-04-21T14:30:43.463Z,57.20
2023-04-21T14:33:10.921Z,57.20
2023-04-21T14:35:38.379Z,56.70
2023-04-21T14:38:05.804Z,56.30
2023-04-21T14:40:33.229Z,56.50
2023-04-21T14:43:00.792Z,54.90
2023-04-21T14:45:28.347Z,55.40
2023-04-21T14:47:55.913Z,55.10
2023-04-21T14:50:23.425Z,56.50
2023-04-21T14:52:50.949Z,58.70
2023-04-21T14:55:18.404Z,58.20
2023-04-21T14:57:47.232Z,57.90
2023-04-21T15:00:14.999Z,54.80
2023-04-21T15:02:42.446Z,54.00
2023-04-21T15:05:10.185Z,54.40
2023-04-21T15:07:37.740Z,52.90
2023-04-21T15:10:05.694Z,53.00
2023-04-21T15:12:34.594Z,55.10
2023-04-21T15:15:04.150Z,55.90
2023-04-21T15:17:31.720Z,57.00
2023-04-21T15:19:59.116Z,57.20
2023-04-21T15:22:26.731Z,56.10
2023-04-21T15:24:54.732Z,57.30
2023-04-21T15:27:22.222Z,57.20
2023-04-21T15:29:50.264Z,57.20
2023-04-21T15:32:17.517Z,58.40
2023-04-21T15:34:44.878Z,58.10
2023-04-21T15:37:12.339Z,59.00
2023-04-21T15:39:39.916Z,58.70
2023-04-21T15:42:08.533Z,60.60
2023-04-21T15:44:38.032Z,61.70
2023-04-21T15:47:05.822Z,62.20
2023-04-21T15:49:33.448Z,63.60
2023-04-21T15:52:03.360Z,62.50
2023-04-21T15:54:31.387Z,61.90
2023-04-21T15:56:58.753Z,60.00
2023-04-21T15:59:26.486Z,59.70
2023-04-21T16:01:54.275Z,65.40
2023-04-21T16:04:21.824Z,67.90
2023-04-21T16:06:49.778Z,65.90
2023-04-21T16:09:17.411Z,66.70
2023-04-21T16:11:45.021Z,64.20
2023-04-21T16:14:16.630Z,64.50
2023-04-21T16:16:44.883Z,66.60
2023-04-21T16:19:12.392Z,66.90
2023-04-21T16:21:40.380Z,65.50
2023-04-21T16:24:08.771Z,66.40
2023-04-21T16:26:36.929Z,66.10
2023-04-21T16:29:04.529Z,67.80
2023-04-21T16:31:32.005Z,68.30
2023-04-21T16:34:00.031Z,68.00
2023-04-21T16:36:28.682Z,67.30
2023-04-21T16:38:56.536Z,65.80
2023-04-21T16:41:24.039Z,66.80
2023-04-21T16:43:51.786Z,68.50
2023-04-21T16:46:19.188Z,67.50
2023-04-21T16:48:47.057Z,67.40
2023-04-21T16:51:14.441Z,68.70
2023-04-21T16:53:42.749Z,69.00
2023-04-21T16:56:10.205Z,70.00
2023-04-21T16:58:37.940Z,71.00
2023-04-21T17:01:07.733Z,71.40
2023-04-21T17:03:35.460Z,71.00
2023-04-21T17:06:05.153Z,71.30
2023-04-21T17:08:32.575Z,71.30
2023-04-21T17:11:00.294Z,72.10
2023-04-21T17:13:27.823Z,73.00
2023-04-21T17:15:55.147Z,72.90
2023-04-21T17:18:22.540Z,72.00
2023-04-21T17:20:49.894Z,72.90
2023-04-21T17:23:17.336Z,73.00
2023-04-21T17:25:44.637Z,73.40
2023-04-21T17:28:12.149Z,74.20
2023-04-21T17:30:39.477Z,74.90
2023-04-21T17:33:16.105Z,74.70
2023-04-21T17:36:00.029Z,75.80
2023-04-21T17:38:31.035Z,76.00
2023-04-21T17:40:59.968Z,76.20
2023-04-21T17:43:27.585Z,76.50
2023-04-21T17:45:55.077Z,76.70
2023-04-21T17:48:22.716Z,77.10
2023-04-21T17:50:50.034Z,77.30
2023-04-21T17:53:18.500Z,78.00
2023-04-21T17:55:45.970Z,78.60
2023-04-21T17:58:13.305Z,79.10
2023-04-21T18:00:40.986Z,79.60
2023-04-21T18:03:08.692Z,79.30
2023-04-21T18:05:36.335Z,79.80
2023-04-21T18:08:03.913Z,80.10
2023-04-21T18:10:31.417Z,80.50
2023-04-21T18:12:58.957Z,81.00
2023-04-21T18:15:26.469Z,81.70
2023-04-21T18:17:54.124Z,82.30
2023-04-21T18:20:21.617Z,83.70
2023-04-21T18:22:50.666Z,83.60
2023-04-21T18:25:34.095Z,84.30
2023-04-21T18:28:07.748Z,84.90
2023-04-21T18:30:35.193Z,85.10
2023-04-21T18:33:02.760Z,85.50
2023-04-21T18:35:32.198Z,86.00
2023-04-21T18:37:59.656Z,86.90
2023-04-21T18:40:26.998Z,87.80
2023-04-21T18:42:54.332Z,87.90
2023-04-21T18:45:21.673Z,88.50
2023-04-21T18:47:48.962Z,89.00
2023-04-21T18:50:16.360Z,89.80
2023-04-21T18:52:43.837Z,90.20
2023-04-21T18:55:11.219Z,90.60
2023-04-21T18:57:38.621Z,90.70
2023-04-21T19:00:07.558Z,91.00
2023-04-21T19:02:35.070Z,91.20
2023-04-21T19:05:03.109Z,91.30
2023-04-21T19:07:30.545Z,91.80
2023-04-21T19:09:58.148Z,91.90
2023-04-21T19:12:26.166Z,91.90
2023-04-21T19:14:53.932Z,92.20
2023-04-21T19:17:21.748Z,92.40
2023-04-21T19:19:49.111Z,92.60
2023-04-21T19:22:16.526Z,93.10
2023-04-21T19:24:43.746Z,93.30
2023-04-21T19:27:11.198Z,93.60
2023-04-21T19:29:38.582Z,93.90
2023-04-21T19:32:07.494Z,94.10
2023-04-21T19:34:35.138Z,94.50
2023-04-21T19:37:02.727Z,94.90
2023-04-21T19:39:29.972Z,95.30
2023-04-21T19:41:57.978Z,95.50
2023-04-21T19:44:25.290Z,95.80
2023-04-21T19:46:52.702Z,96.30
2023-04-21T19:49:19.992Z,96.80
2023-04-21T19:51:47.512Z,97.20
2023-04-21T19:54:14.944Z,97.50
2023-04-21T19:56:42.564Z,97.90
2023-04-21T19:59:09.923Z,98.20
2023-04-21T20:01:37.379Z,98.70
2023-04-21T20:04:04.965Z,98.90
2023-04-21T20:06:33.378Z,99.30
2023-04-21T20:09:05.774Z,99.30
2023-04-21T20:11:34.164Z,99.60
2023-04-21T20:14:01.594Z,99.80
2023-04-21T20:16:29.243Z,99.90
2023-04-21T20:18:56.731Z,99.90
2023-04-21T20:21:25.338Z,99.90
2023-04-21T20:23:52.771Z,99.90
2023-04-21T20:26:20.924Z,99.90
2023-04-21T20:28:48.543Z,99.90
2023-04-21T20:31:16.660Z,99.90
2023-04-21T20:33:44.052Z,99.90
2023-04-21T20:36:12.008Z,99.90
2023-04-21T20:38:39.344Z,99.90
2023-04-21T20:41:06.869Z,99.90
2023-04-21T20:43:34.432Z,99.90
2023-04-21T20:46:03.352Z,99.90
2023-04-21T20:48:30.880Z,99.90
2023-04-21T20:50:58.508Z,99.90
2023-04-21T20:53:26.274Z,99.90
2023-04-21T20:55:53.690Z,99.90
2023-04-21T20:58:21.163Z,99.90
2023-04-21T21:00:48.586Z,99.90
2023-04-21T21:03:17.440Z,99.90
2023-04-21T21:05:45.093Z,99.90
2023-04-21T21:08:12.381Z,99.90
2023-04-21T21:10:39.795Z,99.90
2023-04-21T21:13:07.164Z,99.90
2023-04-21T21:15:35.142Z,99.90
2023-04-21T21:18:02.742Z,99.90
2023-04-21T21:20:30.650Z,99.90
2023-04-21T21:22:58.029Z,99.90
2023-04-21T21:25:27.162Z,99.90
2023-04-21T21:27:54.620Z,99.90
2023-04-21T21:30:22.246Z,99.90
2023-04-21T21:32:51.033Z,99.90
2023-04-21T21:35:18.596Z,99.90
2023-04-21T21:37:45.909Z,99.90
2023-04-21T21:40:14.103Z,99.90
2023-04-21T21:42:41.982Z,99.90
2023-04-21T21:45:11.224Z,99.90
2023-04-21T21:47:41.200Z,99.90
2023-04-21T21:50:12.793Z,99.90
2023-04-21T21:52:40.487Z,99.90
2023-04-21T21:55:08.443Z,99.90
2023-04-21T21:57:36.275Z,99.90
2023-04-21T22:00:08.278Z,99.90
2023-04-21T22:02:36.208Z,99.90
2023-04-21T22:05:06.455Z,99.90
2023-04-21T22:07:35.641Z,99.90
2023-04-21T22:10:03.871Z,99.90
2023-04-21T22:12:33.186Z,99.90
2023-04-21T22:15:00.501Z,99.90
2023-04-21T22:17:29.636Z,99.90
2023-04-21T22:19:57.991Z,99.90
2023-04-21T22:22:25.452Z,99.90
2023-04-21T22:24:52.996Z,99.90
2023-04-21T22:27:20.812Z,99.90
2023-04-21T22:29:48.094Z,99.90
2023-04-21T22:32:15.513Z,99.90
2023-04-21T22:34:42.921Z,99.90
2023-04-21T22:37:10.545Z,99.90
2023-04-21T22:39:39.225Z,99.90
2023-04-21T22:42:07.147Z,99.90
2023-04-21T22:44:34.571Z,99.90
2023-04-21T22:47:01.946Z,99.90
2023-04-21T22:49:29.315Z,99.90
2023-04-21T22:51:56.679Z,99.90
2023-04-21T22:54:23.953Z,99.90
2023-04-21T22:56:51.442Z,99.90
2023-04-21T22:59:18.769Z,99.90
2023-04-21T23:01:46.256Z,99.90
2023-04-21T23:04:13.722Z,99.90
2023-04-21T23:06:41.725Z,99.90
2023-04-21T23:09:09.060Z,99.90
2023-04-21T23:11:36.666Z,99.90
2023-04-21T23:14:03.976Z,99.90
2023-04-21T23:16:31.969Z,99.90
2023-04-21T23:18:59.483Z,99.90
2023-04-21T23:21:26.920Z,99.90
2023-04-21T23:23:54.196Z,99.90
2023-04-21T23:26:21.984Z,99.90
2023-04-21T23:28:49.249Z,99.90
2023-04-21T23:31:16.738Z,99.90
2023-04-21T23:33:44.664Z,99.90
2023-04-21T23:36:12.133Z,99.90
2023-04-21T23:38:39.500Z,99.90
2023-04-21T23:41:06.993Z,99.90
2023-04-21T23:43:34.699Z,99.90
2023-04-21T23:46:02.116Z,99.90
2023-04-21T23:48:29.574Z,99.90
2023-04-21T23:50:57.043Z,99.90
2023-04-21T23:53:24.300Z,99.90
2023-04-21T23:55:51.791Z,99.90
2023-04-21T23:58:19.105Z,99.90
